Time;durP1;ratioP1;P1;durP2;ratioP2;P2;SDS_P1;SDS_P2;PMS_P1;PMS_P2;Temp;Humidity;BMP_temperature;BMP_pressure;BME280_temperature;BME280_humidity;BME280_pressure;Samples;Min_cycle;Max_cycle;Signal;HPM_P1;HPM_P2
2022/03/11 00:00:31;;;;;;;7.63;5.95;;;;;;;6.80;38.82;98828.66;4170529;28;20212;-49
2022/03/11 00:02:35;;;;;;;5.97;5.32;;;;;;;6.75;38.72;98823.06;4151804;28;20836;-48
2022/03/11 00:04:38;;;;;;;6.57;6.00;;;;;;;6.67;39.15;98828.72;4131294;28;20214;-47
2022/03/11 00:06:39;;;;;;;8.65;6.53;;;;;;;6.75;38.61;98831.22;4171254;28;20640;-50
2022/03/11 00:08:41;;;;;;;6.95;6.35;;;;;;;6.73;38.79;98833.28;4145253;28;20237;-48
2022/03/11 00:10:43;;;;;;;7.82;6.75;;;;;;;6.71;39.04;98830.81;4169832;28;20311;-48
2022/03/11 00:12:45;;;;;;;7.80;7.10;;;;;;;6.69;38.59;98827.47;4142178;28;20247;-47
2022/03/11 00:14:46;;;;;;;6.32;5.82;;;;;;;6.57;39.27;98833.81;4139694;28;20209;-47
2022/03/11 00:16:48;;;;;;;8.43;6.22;;;;;;;6.60;38.90;98833.38;4155710;28;20673;-48
2022/03/11 00:18:50;;;;;;;6.72;6.03;;;;;;;6.51;39.53;98834.69;4143417;28;20315;-47
2022/03/11 00:20:52;;;;;;;7.38;6.78;;;;;;;6.45;39.90;98832.81;4132271;28;20209;-47
2022/03/11 00:22:54;;;;;;;6.68;5.97;;;;;;;6.41;39.64;98835.13;4172199;28;20550;-47
2022/03/11 00:24:56;;;;;;;5.78;5.25;;;;;;;6.46;39.86;98831.78;4145703;28;20240;-47
2022/03/11 00:26:58;;;;;;;7.22;6.53;;;;;;;6.41;39.41;98832.41;4155015;28;20244;-48
2022/03/11 00:29:00;;;;;;;5.90;5.45;;;;;;;6.31;39.88;98832.06;4141184;28;20276;-48
2022/03/11 00:31:03;;;;;;;5.38;4.75;;;;;;;6.43;39.66;98832.22;4171449;28;20200;-47
2022/03/11 00:33:07;;;;;;;7.82;7.10;;;;;;;6.29;40.10;98830.59;4171399;28;20728;-49
2022/03/11 00:35:11;;;;;;;5.70;5.20;;;;;;;6.40;39.64;98828.03;4144623;28;20211;-48
2022/03/11 00:37:13;;;;;;;6.13;5.68;;;;;;;6.44;39.77;98831.16;4144880;28;20201;-48
2022/03/11 00:39:14;;;;;;;6.63;5.90;;;;;;;6.40;39.41;98833.47;4170333;28;20248;-48
2022/03/11 00:41:17;;;;;;;5.53;5.03;;;;;;;6.29;40.15;98831.41;4143447;28;20732;-49
2022/03/11 00:43:18;;;;;;;7.75;6.28;;;;;;;6.22;40.34;98835.22;4145945;28;20216;-48
2022/03/11 00:45:22;;;;;;;6.68;6.00;;;;;;;6.24;40.30;98833.94;4131930;28;20216;-48
2022/03/11 00:47:26;;;;;;;7.20;6.40;;;;;;;6.17;40.33;98832.31;4145502;28;20275;-49
2022/03/11 00:49:29;;;;;;;5.30;4.90;;;;;;;6.17;40.52;98826.88;4158453;28;20286;-49
2022/03/11 00:51:30;;;;;;;6.47;5.88;;;;;;;6.15;40.87;98823.56;4125996;28;20234;-49
2022/03/11 00:53:32;;;;;;;6.93;5.70;;;;;;;6.08;40.42;98828.19;4169953;28;20803;-48
2022/03/11 00:55:34;;;;;;;9.73;6.07;;;;;;;6.06;41.26;98820.25;4141672;28;20209;-49
2022/03/11 00:57:35;;;;;;;5.38;4.53;;;;;;;6.16;41.01;98825.22;4156554;28;20244;-49
2022/03/11 00:59:37;;;;;;;9.10;6.13;;;;;;;5.98;41.37;98816.91;4154416;28;20391;-48
2022/03/11 01:01:39;;;;;;;6.40;5.35;;;;;;;5.96;41.15;98824.44;4143491;28;20201;-49
2022/03/11 01:03:40;;;;;;;5.80;5.30;;;;;;;5.88;41.22;98816.53;4150601;28;20244;-49
2022/03/11 01:05:42;;;;;;;6.97;6.38;;;;;;;5.82;41.26;98817.41;4143272;28;20205;-49
2022/03/11 01:07:44;;;;;;;5.10;4.60;;;;;;;5.75;41.76;98821.97;4152596;28;20244;-49
2022/03/11 01:09:46;;;;;;;6.60;6.00;;;;;;;5.71;41.88;98820.72;4153940;28;20277;-49
2022/03/11 01:11:47;;;;;;;6.75;5.68;;;;;;;5.69;42.30;98818.19;4140355;28;20238;-49
2022/03/11 01:13:49;;;;;;;6.22;5.57;;;;;;;5.64;42.33;98811.75;4153825;28;20670;-49
2022/03/11 01:15:50;;;;;;;6.32;5.70;;;;;;;5.64;42.56;98809.84;4169543;28;20651;-49
2022/03/11 01:17:52;;;;;;;8.05;5.47;;;;;;;5.72;42.30;98806.09;4143752;28;20217;-48
2022/03/11 01:19:54;;;;;;;6.32;5.72;;;;;;;5.72;42.28;98806.09;4143412;28;20728;-49
2022/03/11 01:21:57;;;;;;;7.43;6.72;;;;;;;5.73;42.28;98811.31;4136755;28;20264;-49
2022/03/11 01:23:58;;;;;;;7.88;6.30;;;;;;;5.69;42.04;98811.97;4154095;28;20311;-49
2022/03/11 01:26:00;;;;;;;8.85;6.40;;;;;;;5.61;42.65;98806.72;4141573;28;20252;-49
2022/03/11 01:28:02;;;;;;;6.55;5.78;;;;;;;5.55;42.92;98811.13;4135090;28;20212;-48
2022/03/11 01:30:06;;;;;;;6.95;6.28;;;;;;;5.62;42.81;98805.72;4171981;28;20309;-49
2022/03/11 01:32:08;;;;;;;6.38;5.88;;;;;;;5.65;42.72;98805.28;4170029;28;20270;-49
2022/03/11 01:34:09;;;;;;;7.10;6.50;;;;;;;5.54;42.73;98805.91;4137958;28;20244;-49
2022/03/11 01:36:13;;;;;;;8.00;7.20;;;;;;;5.47;43.18;98799.66;4167557;28;20242;-49
2022/03/11 01:38:15;;;;;;;6.45;5.85;;;;;;;5.60;43.06;98810.50;4135577;28;20213;-49
2022/03/11 01:40:17;;;;;;;7.88;7.15;;;;;;;5.50;43.13;98801.97;4153583;28;20209;-49
2022/03/11 01:42:18;;;;;;;6.53;6.03;;;;;;;5.42;43.48;98803.00;4138413;28;20204;-48
2022/03/11 01:44:24;;;;;;;10.32;6.70;;;;;;;5.41;43.61;98803.22;4153735;28;20208;-49
2022/03/11 01:46:26;;;;;;;6.60;6.07;;;;;;;5.42;43.73;98804.91;4136596;28;20202;-49
2022/03/11 01:48:28;;;;;;;9.13;6.28;;;;;;;5.44;43.49;98800.09;4141585;28;20205;-49
2022/03/11 01:50:29;;;;;;;6.43;5.90;;;;;;;5.39;44.00;98797.16;4140646;28;20216;-49
2022/03/11 01:52:31;;;;;;;6.63;6.13;;;;;;;5.33;43.86;98800.72;4142125;28;20324;-49
2022/03/11 01:54:33;;;;;;;6.60;5.93;;;;;;;5.25;44.09;98799.06;4136376;28;20285;-49
2022/03/11 01:56:36;;;;;;;7.78;7.03;;;;;;;5.21;44.13;98797.81;4151165;28;20216;-49
2022/03/11 01:58:38;;;;;;;7.22;6.63;;;;;;;5.24;44.55;98801.97;4140037;28;20237;-48
2022/03/11 02:00:40;;;;;;;7.60;6.90;;;;;;;5.27;44.24;98804.25;4166809;28;20777;-49
2022/03/11 02:02:42;;;;;;;6.38;5.80;;;;;;;5.16;44.60;98802.19;4132452;28;20221;-49
2022/03/11 02:04:44;;;;;;;8.02;6.85;;;;;;;5.07;44.46;98795.28;4169810;28;20247;-48
2022/03/11 02:06:46;;;;;;;7.10;6.45;;;;;;;5.07;44.62;98799.91;4127171;28;20206;-49
2022/03/11 02:08:48;;;;;;;9.35;7.13;;;;;;;5.01;44.85;98796.13;4135783;28;20705;-49
2022/03/11 02:10:49;;;;;;;7.30;6.60;;;;;;;5.15;44.75;98797.81;4174426;28;20216;-49
2022/03/11 02:12:51;;;;;;;7.60;7.00;;;;;;;5.00;45.15;98794.47;4148413;28;20848;-49
2022/03/11 02:14:53;;;;;;;6.40;5.53;;;;;;;5.02;45.05;98792.41;4146003;28;20720;-49
2022/03/11 02:16:55;;;;;;;6.80;6.20;;;;;;;4.94;45.18;98798.00;4158806;28;20287;-49
2022/03/11 02:18:57;;;;;;;7.80;7.20;;;;;;;4.87;45.66;98783.59;4155675;28;20229;-49
2022/03/11 02:21:02;;;;;;;6.63;6.00;;;;;;;4.84;45.83;98785.91;4156321;28;20232;-50
2022/03/11 02:23:07;;;;;;;6.90;6.25;;;;;;;4.85;45.84;98785.69;4153511;28;20945;-49
2022/03/11 02:25:09;;;;;;;7.30;6.60;;;;;;;4.76;45.64;98786.97;4168858;28;20210;-49
2022/03/11 02:27:11;;;;;;;6.65;5.88;;;;;;;4.75;45.58;98774.44;4134664;28;20210;-49
2022/03/11 02:29:12;;;;;;;6.90;6.20;;;;;;;4.73;45.83;98781.13;4152886;28;20324;-49
2022/03/11 02:31:14;;;;;;;7.85;7.25;;;;;;;4.69;46.14;98780.69;4119801;28;20203;-49
2022/03/11 02:33:16;;;;;;;8.85;8.10;;;;;;;4.61;46.43;98780.03;4143789;28;20261;-49
2022/03/11 02:35:18;;;;;;;6.85;6.15;;;;;;;4.62;46.18;98776.28;4159312;28;20209;-49
2022/03/11 02:37:20;;;;;;;6.75;6.15;;;;;;;4.71;46.13;98773.19;4163774;28;20240;-49
2022/03/11 02:39:21;;;;;;;7.40;6.80;;;;;;;4.58;46.65;98773.16;4146776;28;20736;-50
2022/03/11 02:41:24;;;;;;;7.95;7.15;;;;;;;4.56;46.78;98777.97;4162110;28;20580;-49
2022/03/11 02:43:25;;;;;;;7.10;6.40;;;;;;;4.51;46.75;98766.91;4141573;28;20201;-49
2022/03/11 02:45:27;;;;;;;8.27;7.57;;;;;;;4.46;47.52;98774.78;4157119;28;21654;-49
2022/03/11 02:47:29;;;;;;;7.32;6.68;;;;;;;4.45;46.97;98778.56;4140534;28;20209;-49
2022/03/11 02:49:30;;;;;;;8.20;7.50;;;;;;;4.43;47.14;98768.94;4143143;28;20672;-49
2022/03/11 02:51:32;;;;;;;7.43;6.60;;;;;;;4.37;47.30;98773.31;4141794;28;20224;-49
2022/03/11 02:53:40;;;;;;;8.98;7.35;;;;;;;4.36;47.66;98770.81;4155671;28;20766;-49
2022/03/11 02:55:42;;;;;;;7.90;7.18;;;;;;;4.28;47.58;98769.13;4142188;28;20255;-49
2022/03/11 02:57:44;;;;;;;7.35;6.65;;;;;;;4.25;47.81;98761.41;4138738;28;20248;-49
2022/03/11 02:59:46;;;;;;;7.55;6.85;;;;;;;4.21;48.37;98759.31;4172163;28;20345;-49
2022/03/11 03:01:47;;;;;;;8.45;7.75;;;;;;;4.13;48.20;98760.34;4155393;28;20232;-49
2022/03/11 03:03:49;;;;;;;7.45;6.70;;;;;;;4.11;48.36;98754.28;4145237;28;20346;-49
2022/03/11 03:05:51;;;;;;;7.25;6.65;;;;;;;4.13;48.39;98756.81;4174668;28;20308;-49
2022/03/11 03:07:52;;;;;;;7.78;7.03;;;;;;;4.06;48.36;98756.75;4143769;28;20665;-49
2022/03/11 03:09:54;;;;;;;7.30;6.60;;;;;;;3.98;48.46;98765.06;4144785;28;20228;-49
2022/03/11 03:11:56;;;;;;;6.60;5.85;;;;;;;3.95;48.49;98760.03;4157483;28;20295;-49
2022/03/11 03:13:57;;;;;;;6.97;6.28;;;;;;;3.91;48.90;98758.81;4155881;28;20255;-49
2022/03/11 03:15:59;;;;;;;9.55;7.47;;;;;;;3.89;49.00;98768.16;4157361;28;20754;-49
2022/03/11 03:18:01;;;;;;;7.72;6.97;;;;;;;3.87;48.98;98762.94;4157036;28;20301;-48
2022/03/11 03:20:05;;;;;;;7.68;6.90;;;;;;;3.86;49.33;98763.97;4145737;28;20226;-49
2022/03/11 03:22:06;;;;;;;8.77;7.88;;;;;;;3.94;49.37;98757.56;4135240;28;20680;-50
2022/03/11 03:24:08;;;;;;;8.13;7.47;;;;;;;3.74;49.25;98760.16;4135646;28;20291;-49
2022/03/11 03:26:11;;;;;;;8.52;7.82;;;;;;;3.73;49.36;98771.22;4153064;28;20209;-49
2022/03/11 03:28:12;;;;;;;8.07;7.25;;;;;;;3.74;49.39;98768.28;4136329;28;20261;-49
2022/03/11 03:30:14;;;;;;;8.07;7.47;;;;;;;3.71;49.35;98763.28;4141908;28;20987;-49
2022/03/11 03:32:16;;;;;;;8.40;7.57;;;;;;;3.66;50.44;98760.34;4145518;28;20220;-49
2022/03/11 03:34:17;;;;;;;9.13;8.23;;;;;;;3.69;49.88;98770.78;4138120;28;20253;-49
2022/03/11 03:36:19;;;;;;;7.65;6.95;;;;;;;3.68;49.91;98763.66;4143532;28;20202;-49
2022/03/11 03:38:21;;;;;;;8.80;7.97;;;;;;;3.65;50.16;98761.38;4143676;28;20267;-49
2022/03/11 03:40:23;;;;;;;8.88;8.10;;;;;;;3.64;49.94;98767.00;4139224;28;20675;-49
2022/03/11 03:42:26;;;;;;;12.82;8.57;;;;;;;3.64;50.54;98767.00;4141112;28;20202;-49
2022/03/11 03:44:27;;;;;;;9.55;8.65;;;;;;;3.54;51.13;98755.72;4140276;28;20228;-49
2022/03/11 03:46:29;;;;;;;9.68;8.88;;;;;;;3.54;51.60;98761.94;4140707;28;20577;-48
2022/03/11 03:48:31;;;;;;;9.38;8.55;;;;;;;3.55;51.13;98768.19;4145385;28;20209;-49
2022/03/11 03:50:32;;;;;;;8.23;7.43;;;;;;;3.53;51.10;98771.09;4128903;28;20301;-50
2022/03/11 03:52:34;;;;;;;9.43;8.52;;;;;;;3.55;51.46;98771.72;4154897;28;20205;-49
2022/03/11 03:54:36;;;;;;;8.75;8.00;;;;;;;3.50;51.26;98771.50;4137267;28;20272;-50
2022/03/11 03:56:39;;;;;;;9.43;8.55;;;;;;;3.55;51.56;98769.00;4139529;28;20237;-48
2022/03/11 03:58:40;;;;;;;11.13;10.20;;;;;;;3.56;51.98;98756.34;4123552;28;20227;-49
2022/03/11 04:00:42;;;;;;;9.68;8.70;;;;;;;3.52;52.02;98765.88;4145481;28;20741;-48
2022/03/11 04:02:48;;;;;;;10.40;8.38;;;;;;;3.49;52.00;98772.53;4146104;28;20225;-49
2022/03/11 04:04:51;;;;;;;11.32;9.07;;;;;;;3.48;51.92;98767.31;4159807;28;20200;-48
2022/03/11 04:06:53;;;;;;;11.05;10.05;;;;;;;3.48;51.85;98768.13;4172085;28;20213;-49
2022/03/11 04:08:56;;;;;;;9.55;8.70;;;;;;;3.45;51.85;98778.53;4139609;28;20240;-49
2022/03/11 04:10:58;;;;;;;9.68;8.82;;;;;;;3.43;51.66;98769.78;4140772;28;20696;-51
2022/03/11 04:13:00;;;;;;;9.93;9.02;;;;;;;3.43;51.48;98781.44;4146700;28;20213;-49
2022/03/11 04:15:02;;;;;;;14.55;9.27;;;;;;;3.40;51.44;98776.41;4139659;28;20218;-52
2022/03/11 04:17:04;;;;;;;8.80;8.07;;;;;;;3.39;51.81;98774.75;4152894;28;20700;-48
2022/03/11 04:19:06;;;;;;;12.25;11.20;;;;;;;3.35;52.47;98773.47;4104992;28;20235;-49
2022/03/11 04:21:08;;;;;;;10.20;9.40;;;;;;;3.41;52.77;98764.56;4138458;28;20205;-49
2022/03/11 04:23:09;;;;;;;10.95;10.05;;;;;;;3.44;52.84;98772.28;4140293;28;20205;-49
2022/03/11 04:25:12;;;;;;;10.90;9.98;;;;;;;3.47;52.04;98766.47;4139914;28;20310;-50
2022/03/11 04:27:14;;;;;;;12.93;9.73;;;;;;;3.47;52.78;98776.47;4144303;28;20652;-48
2022/03/11 04:29:18;;;;;;;11.55;10.55;;;;;;;3.36;52.85;98777.03;4151235;28;20236;-49
2022/03/11 04:31:20;;;;;;;10.43;9.52;;;;;;;3.28;52.51;98763.66;4144500;28;20256;-48
2022/03/11 04:33:22;;;;;;;10.35;9.45;;;;;;;3.29;52.79;98771.59;4139635;28;20288;-49
2022/03/11 04:35:23;;;;;;;10.52;9.48;;;;;;;3.26;52.41;98776.56;4138158;28;20225;-50
2022/03/11 04:37:25;;;;;;;12.07;9.02;;;;;;;3.29;52.48;98771.59;4152248;28;20274;-49
2022/03/11 04:39:27;;;;;;;10.88;9.98;;;;;;;3.24;52.59;98776.75;4142610;28;20292;-49
2022/03/11 04:41:28;;;;;;;11.68;10.07;;;;;;;3.28;52.70;98772.59;4138170;28;20206;-48
2022/03/11 04:43:30;;;;;;;11.27;10.05;;;;;;;3.24;53.03;98775.91;4137114;28;20207;-49
2022/03/11 04:45:32;;;;;;;10.95;9.95;;;;;;;3.24;52.49;98775.91;4139313;28;20210;-50
2022/03/11 04:47:34;;;;;;;11.45;10.45;;;;;;;3.09;53.32;98776.03;4154395;28;20251;-50
2022/03/11 04:49:35;;;;;;;12.00;10.90;;;;;;;3.15;52.95;98767.09;4138250;28;20313;-50
2022/03/11 04:51:38;;;;;;;11.77;9.98;;;;;;;3.13;53.14;98769.16;4155026;28;20224;-49
2022/03/11 04:53:40;;;;;;;11.40;10.30;;;;;;;3.14;53.46;98770.84;4170288;28;20224;-49
2022/03/11 04:55:42;;;;;;;13.30;12.00;;;;;;;3.17;53.62;98767.75;4168569;28;20501;-49
2022/03/11 04:57:44;;;;;;;12.65;11.55;;;;;;;3.16;53.66;98771.50;4173445;28;20205;-48
2022/03/11 04:59:46;;;;;;;12.32;11.32;;;;;;;3.07;53.67;98769.94;4143880;28;20286;-50
2022/03/11 05:01:48;;;;;;;13.55;11.35;;;;;;;3.09;53.91;98772.47;4152971;28;20946;-49
2022/03/11 05:03:49;;;;;;;13.85;12.52;;;;;;;3.06;53.62;98768.28;4156987;28;20223;-49
2022/03/11 05:05:52;;;;;;;12.32;11.13;;;;;;;3.03;54.00;98768.69;4143570;28;20220;-50
2022/03/11 05:07:54;;;;;;;13.02;11.93;;;;;;;3.01;53.91;98764.50;4140591;28;20209;-50
2022/03/11 05:09:56;;;;;;;15.57;12.52;;;;;;;2.98;53.94;98760.31;4138031;28;20234;-49
2022/03/11 05:11:58;;;;;;;12.30;11.00;;;;;;;3.02;54.00;98766.19;4143250;28;20205;-49
2022/03/11 05:14:00;;;;;;;15.30;11.80;;;;;;;2.96;54.75;98762.41;4136258;28;20731;-49
2022/03/11 05:16:02;;;;;;;12.48;11.35;;;;;;;2.98;54.44;98767.59;4159066;28;20259;-50
2022/03/11 05:18:04;;;;;;;13.00;11.73;;;;;;;2.91;53.85;98762.16;4142673;28;20268;-48
2022/03/11 05:20:06;;;;;;;14.73;13.00;;;;;;;2.81;54.48;98764.34;4154280;28;20228;-50
2022/03/11 05:22:08;;;;;;;14.00;12.43;;;;;;;2.82;54.14;98760.59;4150147;28;20201;-49
2022/03/11 05:24:10;;;;;;;14.20;12.80;;;;;;;2.78;54.66;98764.75;4169940;28;20208;-48
2022/03/11 05:26:24;;;;;;;12.65;11.45;;;;;;;2.77;54.40;98765.78;4138830;28;20201;-48
2022/03/11 05:28:26;;;;;;;12.48;11.35;;;;;;;2.81;54.58;98761.63;4122645;28;20253;-48
2022/03/11 05:30:36;;;;;;;13.60;12.30;;;;;;;2.80;54.21;98757.25;4142141;28;20596;-49
2022/03/11 05:32:46;;;;;;;12.40;11.30;;;;;;;2.77;54.35;98767.63;4138381;28;20239;-50
2022/03/11 05:34:50;;;;;;;13.18;12.07;;;;;;;2.75;54.76;98769.69;4137578;28;20691;-49
2022/03/11 05:36:52;;;;;;;13.02;11.75;;;;;;;2.72;54.33;98775.47;4136310;28;20690;-49
2022/03/11 05:38:53;;;;;;;12.55;11.30;;;;;;;2.70;54.48;98781.09;4169200;28;20242;-49
2022/03/11 05:40:55;;;;;;;14.38;13.10;;;;;;;2.71;54.68;98773.81;4169481;28;20679;-50
2022/03/11 05:42:57;;;;;;;13.40;12.00;;;;;;;2.68;54.48;98788.53;4151586;28;20229;-49
2022/03/11 05:44:58;;;;;;;11.90;10.90;;;;;;;2.63;54.15;98782.91;4136137;28;20253;-49
2022/03/11 05:47:00;;;;;;;15.23;13.45;;;;;;;2.65;55.08;98780.81;4136276;28;20244;-49
2022/03/11 05:49:02;;;;;;;20.20;13.40;;;;;;;2.71;54.74;98785.47;4139643;28;20242;-52
2022/03/11 05:51:04;;;;;;;15.98;14.50;;;;;;;2.61;54.95;98773.31;4135089;28;20213;-51
2022/03/11 05:53:05;;;;;;;15.15;13.75;;;;;;;2.57;55.44;98770.16;4144602;28;20208;-48
2022/03/11 05:55:08;;;;;;;14.43;13.02;;;;;;;2.62;55.02;98775.78;4144059;28;20256;-48
2022/03/11 05:57:10;;;;;;;16.17;14.75;;;;;;;2.53;55.08;98776.16;4155679;28;20212;-48
2022/03/11 05:59:12;;;;;;;14.80;13.15;;;;;;;2.58;55.07;98779.09;4140430;28;20584;-50
2022/03/11 06:01:13;;;;;;;15.45;14.15;;;;;;;2.53;55.60;98778.84;4135361;28;20625;-48
2022/03/11 06:03:16;;;;;;;15.88;14.23;;;;;;;2.58;55.22;98781.78;4154132;28;20685;-50
2022/03/11 06:05:18;;;;;;;14.32;13.00;;;;;;;2.56;55.12;98782.00;4137381;28;20689;-47
2022/03/11 06:07:20;;;;;;;15.23;13.82;;;;;;;2.58;55.17;98779.94;4143828;28;20704;-48
2022/03/11 06:09:21;;;;;;;17.42;14.27;;;;;;;2.63;54.70;98782.91;4134830;28;20608;-48
2022/03/11 06:11:23;;;;;;;19.35;13.75;;;;;;;2.55;55.82;98774.91;4138004;28;20217;-49
2022/03/11 06:13:25;;;;;;;18.75;13.73;;;;;;;2.59;55.29;98778.91;4123104;28;20319;-49
2022/03/11 06:15:27;;;;;;;15.80;14.35;;;;;;;2.58;55.17;98773.69;4140659;28;20688;-48
2022/03/11 06:17:32;;;;;;;15.52;13.93;;;;;;;2.52;55.25;98771.75;4142826;28;22073;-52
2022/03/11 06:19:34;;;;;;;15.77;14.18;;;;;;;2.59;55.28;98773.50;4138772;28;20264;-49
2022/03/11 06:21:36;;;;;;;15.68;14.18;;;;;;;2.67;54.88;98773.34;4142220;28;20200;-49
2022/03/11 06:23:38;;;;;;;16.17;14.63;;;;;;;2.64;54.92;98773.75;4143666;28;20216;-50
2022/03/11 06:25:39;;;;;;;18.13;16.63;;;;;;;2.71;54.84;98776.50;4141501;28;20636;-49
2022/03/11 06:27:41;;;;;;;16.15;14.65;;;;;;;2.65;55.13;98780.81;4120016;28;20206;-50
2022/03/11 06:29:43;;;;;;;16.88;15.30;;;;;;;2.70;55.14;98782.94;4168817;28;20671;-49
2022/03/11 06:31:44;;;;;;;18.10;16.50;;;;;;;2.64;54.83;98784.56;4157526;28;20232;-48
2022/03/11 06:33:46;;;;;;;17.60;15.95;;;;;;;2.71;54.98;98781.91;4140266;28;20205;-49
2022/03/11 06:35:49;;;;;;;16.20;14.85;;;;;;;2.83;54.75;98777.66;4139043;28;20297;-48
2022/03/11 06:37:51;;;;;;;16.17;14.88;;;;;;;2.80;54.63;98789.69;4136886;28;20222;-48
2022/03/11 06:39:53;;;;;;;20.13;14.52;;;;;;;2.79;54.66;98782.63;4154773;28;20708;-49
2022/03/11 06:41:54;;;;;;;17.08;15.40;;;;;;;2.80;54.47;98784.28;4152058;28;20213;-50
2022/03/11 06:43:56;;;;;;;16.58;15.15;;;;;;;2.79;54.91;98779.06;4167999;28;21053;-48
2022/03/11 06:45:58;;;;;;;18.90;15.70;;;;;;;2.78;54.74;98780.09;4142177;28;20214;-49
2022/03/11 06:48:00;;;;;;;17.67;16.08;;;;;;;2.85;54.41;98779.13;4154936;28;20219;-49
2022/03/11 06:50:02;;;;;;;18.17;15.57;;;;;;;2.93;54.29;98778.16;4142114;28;20229;-50
2022/03/11 06:52:04;;;;;;;16.92;15.15;;;;;;;3.18;54.26;98782.94;4153943;28;20208;-49
2022/03/11 06:54:07;;;;;;;17.17;15.57;;;;;;;3.65;52.94;98774.06;4140242;28;20275;-49
2022/03/11 06:56:09;;;;;;;17.33;15.70;;;;;;;3.71;52.04;98784.09;4140314;28;20865;-49
2022/03/11 06:58:11;;;;;;;21.17;16.27;;;;;;;4.08;51.98;98776.34;4135780;28;20733;-49
2022/03/11 07:00:15;;;;;;;17.35;15.68;;;;;;;4.48;50.63;98780.84;4124571;28;20228;-48
2022/03/11 07:02:20;;;;;;;17.00;15.50;;;;;;;4.81;50.01;98779.00;4151705;28;20213;-48
2022/03/11 07:04:27;;;;;;;15.35;13.85;;;;;;;5.45;50.36;98789.03;4123297;28;20367;-48
2022/03/11 07:06:32;;;;;;;16.05;14.65;;;;;;;5.59;48.44;98782.53;4151693;28;20213;-50
2022/03/11 07:08:36;;;;;;;17.90;14.15;;;;;;;5.41;48.44;98784.22;4142581;28;20251;-48
2022/03/11 07:10:38;;;;;;;17.30;15.70;;;;;;;5.29;47.56;98791.34;4129910;28;22363;-48
2022/03/11 07:12:39;;;;;;;16.67;15.27;;;;;;;5.71;47.45;98788.13;4145999;28;20209;-48
2022/03/11 07:14:43;;;;;;;15.90;14.35;;;;;;;5.33;47.95;98789.88;4153839;28;20224;-48
2022/03/11 07:16:45;;;;;;;15.65;14.27;;;;;;;5.27;47.60;98793.41;4159293;28;20208;-48
2022/03/11 07:18:47;;;;;;;15.98;14.57;;;;;;;4.97;48.20;98795.72;4145559;28;20237;-48
2022/03/11 07:20:49;;;;;;;16.40;14.80;;;;;;;4.85;48.80;98798.41;4140803;28;20252;-49
2022/03/11 07:23:06;;;;;;;17.23;15.50;;;;;;;4.89;48.67;98797.81;4130728;28;20210;-48
2022/03/11 07:25:08;;;;;;;16.63;15.13;;;;;;;5.13;48.30;98805.31;4145221;28;20197;-52
2022/03/11 07:27:10;;;;;;;15.82;14.27;;;;;;;5.02;47.88;98792.41;4156015;28;20639;-48
2022/03/11 07:29:12;;;;;;;16.10;14.43;;;;;;;4.98;48.10;98791.13;4139687;28;20226;-49
2022/03/11 07:31:20;;;;;;;14.95;13.20;;;;;;;5.25;48.02;98790.94;4142559;28;20627;-48
2022/03/11 07:33:21;;;;;;;17.80;13.57;;;;;;;5.29;47.80;98794.06;4134829;28;20779;-49
2022/03/11 07:35:23;;;;;;;18.45;14.82;;;;;;;5.88;47.68;98786.66;4122418;28;20226;-48
2022/03/11 07:37:25;;;;;;;16.65;14.98;;;;;;;5.91;46.06;98791.66;4138213;28;20700;-48
2022/03/11 07:39:27;;;;;;;15.00;13.70;;;;;;;6.02;46.93;98791.00;4156936;28;20229;-51
2022/03/11 07:41:30;;;;;;;14.20;12.77;;;;;;;6.24;45.70;98789.66;4156355;28;20213;-48
2022/03/11 07:43:32;;;;;;;15.43;14.02;;;;;;;6.78;45.79;98782.66;4155161;28;20201;-50
2022/03/11 07:45:41;;;;;;;14.85;13.45;;;;;;;6.99;44.15;98789.59;4141116;28;20771;-49
2022/03/11 07:47:43;;;;;;;16.60;14.05;;;;;;;6.70;44.44;98779.38;4159707;28;20303;-51
2022/03/11 07:49:45;;;;;;;17.27;13.23;;;;;;;6.65;44.07;98779.19;4144761;28;20254;-50
2022/03/11 07:51:46;;;;;;;13.77;12.43;;;;;;;6.94;43.16;98781.28;4141554;28;20220;-49
2022/03/11 07:53:48;;;;;;;15.27;13.98;;;;;;;7.08;43.84;98789.13;4144921;28;20237;-49
2022/03/11 07:55:50;;;;;;;14.38;13.18;;;;;;;6.71;43.49;98783.75;4144526;28;20225;-49
2022/03/11 07:57:51;;;;;;;13.48;11.27;;;;;;;6.97;43.59;98780.84;4146364;28;20269;-49
2022/03/11 08:00:01;;;;;;;17.08;14.70;;;;;;;6.40;43.99;98772.84;4140134;28;20233;-48
2022/03/11 08:02:03;;;;;;;15.52;14.10;;;;;;;7.15;44.53;98783.63;4124660;28;20233;-49
2022/03/11 08:04:06;;;;;;;18.83;13.80;;;;;;;7.87;43.16;98776.44;4137465;28;20260;-49
2022/03/11 08:06:08;;;;;;;13.88;12.57;;;;;;;7.62;43.01;98769.38;4155080;28;20239;-48
2022/03/11 08:08:10;;;;;;;16.00;13.15;;;;;;;9.15;41.99;98773.25;4155516;28;20672;-50
2022/03/11 08:10:12;;;;;;;14.27;12.98;;;;;;;9.48;40.23;98779.78;4142426;28;20221;-49
2022/03/11 08:12:14;;;;;;;14.95;13.57;;;;;;;8.32;41.22;98763.34;4143899;28;20205;-50
2022/03/11 08:14:24;;;;;;;20.10;12.77;;;;;;;8.50;41.87;98758.66;4139213;28;20613;-49
2022/03/11 08:16:26;;;;;;;15.70;14.23;;;;;;;8.18;41.27;98769.97;4139377;28;20213;-49
2022/03/11 08:18:28;;;;;;;15.07;13.77;;;;;;;7.84;41.81;98770.59;4138528;28;20213;-48
2022/03/11 08:20:30;;;;;;;14.88;13.57;;;;;;;8.45;41.66;98771.34;4160428;28;20212;-48
2022/03/11 08:22:34;;;;;;;13.35;11.75;;;;;;;7.82;41.80;98770.00;4143801;28;20209;-48
2022/03/11 08:24:42;;;;;;;14.10;12.73;;;;;;;7.77;41.84;98772.56;4138717;28;20232;-48
2022/03/11 08:26:44;;;;;;;15.35;13.57;;;;;;;8.02;42.08;98768.69;4161768;28;20208;-49
2022/03/11 08:28:46;;;;;;;12.88;11.77;;;;;;;7.75;41.91;98771.97;4160005;28;20704;-48
2022/03/11 08:31:09;;;;;;;16.55;13.77;;;;;;;8.13;41.63;98767.94;4147705;28;20205;-48
2022/03/11 08:33:11;;;;;;;14.77;13.48;;;;;;;8.34;41.60;98763.97;4153378;28;20613;-49
2022/03/11 08:35:34;;;;;;;15.93;14.40;;;;;;;8.28;41.67;98753.97;4141256;28;20248;-50
2022/03/11 08:37:55;;;;;;;14.82;13.45;;;;;;;8.14;41.28;98755.13;4145411;28;20620;-52
2022/03/11 08:39:57;;;;;;;14.27;12.98;;;;;;;8.33;41.74;98745.91;4160165;28;20228;-48
2022/03/11 08:41:59;;;;;;;14.70;13.35;;;;;;;9.21;40.91;98748.53;4145172;28;20797;-48
2022/03/11 08:44:03;;;;;;;14.90;13.48;;;;;;;9.60;40.85;98756.06;4143968;28;20218;-48
2022/03/11 08:46:07;;;;;;;13.05;11.90;;;;;;;10.41;38.59;98748.56;4121878;28;20636;-48
2022/03/11 08:48:12;;;;;;;13.02;11.80;;;;;;;9.28;39.58;98745.72;4158457;28;20240;-49
2022/03/11 08:50:16;;;;;;;14.55;13.25;;;;;;;9.33;40.18;98741.19;4142643;28;20229;-50
2022/03/11 08:52:19;;;;;;;15.25;13.57;;;;;;;9.01;39.66;98739.03;4139394;28;20615;-51
2022/03/11 08:54:21;;;;;;;13.38;12.18;;;;;;;8.65;40.55;98739.16;4155918;28;20215;-48
2022/03/11 08:56:23;;;;;;;15.05;13.57;;;;;;;8.50;40.69;98746.94;4140248;28;20201;-49
2022/03/11 08:58:24;;;;;;;12.80;11.80;;;;;;;8.27;40.53;98741.38;4139065;28;20197;-50
2022/03/11 09:00:26;;;;;;;14.73;12.35;;;;;;;8.77;39.98;98737.31;4127262;28;20206;-51
2022/03/11 09:02:28;;;;;;;12.63;11.55;;;;;;;8.93;39.64;98750.28;4139007;28;20205;-50
2022/03/11 09:04:36;;;;;;;13.73;12.32;;;;;;;8.77;39.79;98748.22;4129215;28;20209;-48
2022/03/11 09:06:38;;;;;;;12.48;11.43;;;;;;;9.27;39.79;98754.94;4156153;28;20262;-49
2022/03/11 09:08:40;;;;;;;11.80;10.68;;;;;;;9.57;38.58;98762.00;4125315;28;20644;-49
2022/03/11 09:10:42;;;;;;;12.85;11.85;;;;;;;9.64;38.91;98756.41;4139622;28;20291;-50
2022/03/11 09:12:44;;;;;;;13.05;11.95;;;;;;;9.20;38.82;98762.41;4142908;28;20236;-50
2022/03/11 09:14:46;;;;;;;12.40;11.30;;;;;;;9.76;39.13;98757.22;4138862;28;20212;-49
2022/03/11 09:16:48;;;;;;;12.98;11.27;;;;;;;10.69;38.73;98759.50;4139268;28;20293;-49
2022/03/11 09:18:59;;;;;;;17.33;11.85;;;;;;;10.91;38.09;98753.09;4126337;28;20230;-49
2022/03/11 09:21:01;;;;;;;13.13;12.07;;;;;;;9.80;37.80;98755.66;4137871;28;20712;-49
2022/03/11 09:23:03;;;;;;;14.85;11.77;;;;;;;9.95;38.28;98748.63;4128338;28;20248;-49
2022/03/11 09:25:07;;;;;;;12.88;11.80;;;;;;;9.95;37.61;98756.03;4159967;28;20227;-49
2022/03/11 09:27:30;;;;;;;13.65;12.00;;;;;;;9.70;37.62;98766.38;4173194;28;20200;-49
2022/03/11 09:29:43;;;;;;;12.63;11.57;;;;;;;9.67;38.42;98755.94;4139841;28;20236;-51
2022/03/11 09:31:45;;;;;;;13.05;11.85;;;;;;;9.29;38.42;98752.84;4171563;28;20272;-48
2022/03/11 09:33:47;;;;;;;12.90;11.77;;;;;;;8.73;39.02;98747.84;4139877;28;20207;-49
2022/03/11 09:35:48;;;;;;;13.43;11.23;;;;;;;9.32;38.49;98755.09;4137190;28;20229;-49